Ken Boothe Sr — WDG3360 — position and weather

sailwx.info

Track history (hours):
 
Tides and Currents Weather Stations Pressure Air Temp Water Temp Dewpoint Dewpoint Depression Visibility Wind Speed Wind Dir Waves Ship Positions

Ken Boothe Sr

Owner: AMERICAN STEAMSHIP COMPANY, WILLIAMSVILLE, NY. More information available from US FCC via Universal Licensing System and Coast Guard Vessel Documentation Center.

Last reported at 2015-Jul-12 09:20 UTC. Time now 2015-Jul-31 21:30 UTC.
Position N 45°26' W 083°38'.
Warning: this ship's position is 19 days out of date.

Length 30 m; draft 7.7 m.

Type: Towing. MMSI: 367525230.

Date/timePositionNaut miles runAvg speedWind from/ knotsBaromVisibWave heightAir tempDewpointWater temp
2015-Jul-12 09:20N 45°26' W 083°38'0 0.0
2015-Jul-11 09:33N 45°26' W 083°39'  
2015-Jul-06 19:28N 45°34' W 083°59'1112.0
2015-Jul-06 18:33N 45°39' W 084°12'1211.5
2015-Jul-06 17:33N 45°42' W 084°28'1211.9
2015-Jul-06 16:33N 45°49' W 084°42'1212.0
2015-Jul-06 15:33N 45°50' W 084°59'9 9.1
2015-Jul-06 14:33N 45°45' W 085°10'1212.0
2015-Jul-06 13:33N 45°35' W 085°20'1212.1
2015-Jul-06 12:33N 45°25' W 085°30'1212.1
2015-Jul-06 11:33N 45°16' W 085°41'1212.2
2015-Jul-06 10:33N 45°06' W 085°51'1211.7
2015-Jul-06 09:33N 44°58' W 086°03'28 0.9
2015-Jul-05 01:10N 44°35' W 086°26'711.9
2015-Jul-05 00:33N 44°42' W 086°23'1211.6
2015-Jul-04 23:33N 44°53' W 086°20'1211.6
2015-Jul-04 22:33N 45°05' W 086°17'1211.6
2015-Jul-04 21:33N 45°16' W 086°12'1211.5
2015-Jul-04 20:33N 45°27' W 086°07'1211.6
2015-Jul-04 19:33N 45°38' W 086°02'1211.6
2015-Jul-04 18:33N 45°49' W 085°56'9 8.7
2015-Jul-04 17:33N 45°57' W 085°53'1 1.0
2015-Jul-04 16:33N 45°58' W 085°52'0 0.0
2015-Jul-04 15:33N 45°58' W 085°52'0 0.0
2015-Jul-04 14:33N 45°58' W 085°52'0 0.0
2015-Jul-04 13:33N 45°58' W 085°52'0 0.0
2015-Jul-04 12:33N 45°58' W 085°52'0 0.0
2015-Jul-04 11:33N 45°58' W 085°52'0 0.0
2015-Jul-04 10:33N 45°58' W 085°52'0 0.0
2015-Jul-04 09:33N 45°58' W 085°52'0 0.0
2015-Jul-04 08:33N 45°58' W 085°52'0 0.0
2015-Jul-04 07:33N 45°58' W 085°52'0 0.0
2015-Jul-04 06:33N 45°58' W 085°52'0 0.0
2015-Jul-04 05:33N 45°58' W 085°52'0 0.0
2015-Jul-04 04:33N 45°58' W 085°52'0 0.0
2015-Jul-04 03:33N 45°58' W 085°52'0 0.4
2015-Jul-04 02:33N 45°58' W 085°53'6 6.4
2015-Jul-04 01:33N 45°51' W 085°55'1211.9
2015-Jul-04 00:33N 45°40' W 086°01'1211.9
2015-Jul-03 23:33N 45°30' W 086°09'1212.0
2015-Jul-03 22:31N 45°19' W 086°17'1212.0
2015-Jul-03 21:33N 45°08' W 086°24'1212.0
2015-Jul-03 20:32N 44°57' W 086°32'  
Track history (hours):
 
Tides and Currents Weather Stations Pressure Air Temp Water Temp Dewpoint Dewpoint Depression Visibility Wind Speed Wind Dir Waves Ship Positions

Ken Boothe Sr

Owner: AMERICAN STEAMSHIP COMPANY, WILLIAMSVILLE, NY. More information available from US FCC via Universal Licensing System and Coast Guard Vessel Documentation Center.

Last reported at 2015-Jul-12 09:20 UTC. Time now 2015-Jul-31 21:30 UTC.
Position N 45°26' W 083°38'.
Warning: this ship's position is 19 days out of date.

Length 30 m; draft 7.7 m.

Type: Towing. MMSI: 367525230.

Date/timePositionNaut miles runAvg speedWind from/ knotsBaromVisibWave heightAir tempDewpointWater temp
2015-Jul-12 09:20N 45°26' W 083°38'0 0.0
2015-Jul-11 09:33N 45°26' W 083°39'  
2015-Jul-06 19:28N 45°34' W 083°59'1112.0
2015-Jul-06 18:33N 45°39' W 084°12'1211.5
2015-Jul-06 17:33N 45°42' W 084°28'1211.9
2015-Jul-06 16:33N 45°49' W 084°42'1212.0
2015-Jul-06 15:33N 45°50' W 084°59'9 9.1
2015-Jul-06 14:33N 45°45' W 085°10'1212.0
2015-Jul-06 13:33N 45°35' W 085°20'1212.1
2015-Jul-06 12:33N 45°25' W 085°30'1212.1
2015-Jul-06 11:33N 45°16' W 085°41'1212.2
2015-Jul-06 10:33N 45°06' W 085°51'1211.7
2015-Jul-06 09:33N 44°58' W 086°03'28 0.9
2015-Jul-05 01:10N 44°35' W 086°26'711.9
2015-Jul-05 00:33N 44°42' W 086°23'1211.6
2015-Jul-04 23:33N 44°53' W 086°20'1211.6
2015-Jul-04 22:33N 45°05' W 086°17'1211.6
2015-Jul-04 21:33N 45°16' W 086°12'1211.5
2015-Jul-04 20:33N 45°27' W 086°07'1211.6
2015-Jul-04 19:33N 45°38' W 086°02'1211.6
2015-Jul-04 18:33N 45°49' W 085°56'9 8.7
2015-Jul-04 17:33N 45°57' W 085°53'1 1.0
2015-Jul-04 16:33N 45°58' W 085°52'0 0.0
2015-Jul-04 15:33N 45°58' W 085°52'0 0.0
2015-Jul-04 14:33N 45°58' W 085°52'0 0.0
2015-Jul-04 13:33N 45°58' W 085°52'0 0.0
2015-Jul-04 12:33N 45°58' W 085°52'0 0.0
2015-Jul-04 11:33N 45°58' W 085°52'0 0.0
2015-Jul-04 10:33N 45°58' W 085°52'0 0.0
2015-Jul-04 09:33N 45°58' W 085°52'0 0.0
2015-Jul-04 08:33N 45°58' W 085°52'0 0.0
2015-Jul-04 07:33N 45°58' W 085°52'0 0.0
2015-Jul-04 06:33N 45°58' W 085°52'0 0.0
2015-Jul-04 05:33N 45°58' W 085°52'0 0.0
2015-Jul-04 04:33N 45°58' W 085°52'0 0.0
2015-Jul-04 03:33N 45°58' W 085°52'0 0.4
2015-Jul-04 02:33N 45°58' W 085°53'6 6.4
2015-Jul-04 01:33N 45°51' W 085°55'1211.9
2015-Jul-04 00:33N 45°40' W 086°01'1211.9
2015-Jul-03 23:33N 45°30' W 086°09'1212.0
2015-Jul-03 22:31N 45°19' W 086°17'1212.0
2015-Jul-03 21:33N 45°08' W 086°24'1212.0
2015-Jul-03 20:32N 44°57' W 086°32'  

Dump ship's entire track history